Terminal Aerodrome Forecast
Issued by NWS

Home | Current Version | Previous Version | Graphics & Text | Print | Product List | Glossary Off
Versions: 1 2 3 4 5 6 7 8 9 10 11 12 13

081
FTUS43 KIWX 281142
TAFSBN
TAF
KSBN 281142Z 2812/0112 16011KT 6SM BR VCSH BKN020 OVC050
     FM281600 19012KT P6SM OVC010
     FM010000 20011KT 1SM SHRA OVC005
     FM010200 21020G32KT P6SM SHRA OVC030
     FM010400 21028G40KT 2SM +TSRA OVC010CB
     FM010800 21014KT P6SM SHRA OVC050=

USA.gov is the U.S. government's official web portal to all federal, state and local government web resources and services.